Time;durP1;ratioP1;P1;durP2;ratioP2;P2;SDS_P1;SDS_P2;PMS_P1;PMS_P2;Temp;Humidity;BMP_temperature;BMP_pressure;BME280_temperature;BME280_humidity;BME280_pressure;Samples;Min_cycle;Max_cycle;Signal;HPM_P1;HPM_P2
2023/11/10 00:00:10;;;;;;;11.50;6.13;;;;;;;8.56;72.78;100425.81;5058126;28;20304;-67
2023/11/10 00:02:39;;;;;;;10.55;6.97;;;;;;;8.58;73.31;100423.84;5057992;28;20037;-66
2023/11/10 00:05:06;;;;;;;10.35;6.22;;;;;;;8.48;74.34;100404.50;5057778;28;20032;-67
2023/11/10 00:07:32;;;;;;;14.23;7.50;;;;;;;8.37;76.14;100392.25;5058477;28;20106;-67
2023/11/10 00:09:58;;;;;;;10.40;7.13;;;;;;;8.39;75.67;100397.38;5058094;28;20297;-67
2023/11/10 00:12:23;;;;;;;12.50;7.13;;;;;;;8.25;76.07;100396.69;5057608;28;20029;-64
2023/11/10 00:14:49;;;;;;;10.13;7.63;;;;;;;8.28;76.94;100406.16;5057395;28;20048;-67
2023/11/10 00:17:17;;;;;;;10.23;6.72;;;;;;;8.34;77.24;100397.78;5057572;28;20037;-67
2023/11/10 00:19:45;;;;;;;9.55;6.63;;;;;;;8.42;75.95;100400.59;5057173;28;20207;-67
2023/11/10 00:22:11;;;;;;;9.10;6.40;;;;;;;8.43;75.08;100404.91;5056869;28;20388;-67
2023/11/10 00:24:44;;;;;;;10.70;5.47;;;;;;;8.44;75.17;100403.09;5057150;28;20037;-67
2023/11/10 00:27:14;;;;;;;9.18;6.07;;;;;;;8.42;74.20;100391.84;5057207;28;20285;-66
2023/11/10 00:29:44;;;;;;;9.38;5.93;;;;;;;8.37;73.50;100396.69;5057185;28;20041;-67
2023/11/10 00:32:09;;;;;;;9.80;6.65;;;;;;;8.36;74.78;100385.28;5057614;28;20041;-67
2023/11/10 00:34:36;;;;;;;12.77;6.38;;;;;;;8.35;75.79;100380.97;5057121;28;20048;-67
2023/11/10 00:37:02;;;;;;;13.00;6.35;;;;;;;8.32;76.17;100378.53;5057950;28;20040;-67
2023/11/10 00:39:28;;;;;;;11.88;6.35;;;;;;;8.37;76.61;100379.03;5056979;28;20351;-67
2023/11/10 00:41:53;;;;;;;8.70;5.82;;;;;;;8.41;76.06;100375.19;5056174;28;20037;-67
2023/11/10 00:44:19;;;;;;;11.82;7.40;;;;;;;8.30;76.68;100376.03;5057254;28;20043;-67
2023/11/10 00:46:44;;;;;;;15.55;7.72;;;;;;;8.31;77.82;100375.06;5057548;28;20208;-67
2023/11/10 00:49:10;;;;;;;10.52;7.68;;;;;;;8.31;78.02;100375.06;5057110;28;20047;-67
2023/11/10 00:51:38;;;;;;;10.85;7.40;;;;;;;8.36;77.65;100379.19;5057019;28;20028;-67
2023/11/10 00:54:04;;;;;;;10.93;6.78;;;;;;;8.34;76.61;100381.13;5056420;28;20047;-66
2023/11/10 00:56:30;;;;;;;12.32;6.97;;;;;;;8.39;75.84;100377.09;5056991;28;20033;-66
2023/11/10 00:58:58;;;;;;;10.82;6.10;;;;;;;8.39;75.62;100366.56;5056958;28;21202;-67
2023/11/10 01:01:24;;;;;;;12.85;7.15;;;;;;;8.39;76.72;100377.09;5056204;28;20031;-67
2023/11/10 01:03:49;;;;;;;12.00;7.30;;;;;;;8.31;76.86;100375.06;5056052;28;20210;-67
2023/11/10 01:06:15;;;;;;;7.85;5.78;;;;;;;8.31;75.12;100382.16;5056779;28;20041;-67
2023/11/10 01:08:40;;;;;;;10.80;6.15;;;;;;;8.26;75.47;100379.06;5056199;28;20357;-67
2023/11/10 01:11:06;;;;;;;11.20;5.57;;;;;;;8.28;76.09;100388.53;5057061;28;20059;-67
2023/11/10 01:13:32;;;;;;;10.45;5.55;;;;;;;8.21;76.94;100386.53;5055780;28;20044;-67
2023/11/10 01:15:57;;;;;;;8.82;6.15;;;;;;;8.15;78.13;100371.25;5055588;28;20032;-67
2023/11/10 01:18:23;;;;;;;9.57;5.80;;;;;;;8.06;78.99;100382.56;5057097;28;20040;-67
2023/11/10 01:20:49;;;;;;;9.23;5.30;;;;;;;8.04;79.92;100387.97;5056696;28;20032;-67
2023/11/10 01:23:15;;;;;;;8.70;5.18;;;;;;;8.25;78.27;100390.59;5057091;28;20338;-67
2023/11/10 01:25:41;;;;;;;10.98;5.32;;;;;;;8.32;77.86;100383.81;5056958;28;20040;-67
2023/11/10 01:28:06;;;;;;;10.10;6.32;;;;;;;8.30;77.72;100389.22;5056510;28;20045;-67
2023/11/10 01:30:32;;;;;;;11.10;6.00;;;;;;;8.12;78.06;100387.34;5056523;28;20345;-67
2023/11/10 01:32:57;;;;;;;8.25;5.32;;;;;;;7.94;79.44;100389.72;5055729;28;20285;-66
2023/11/10 01:35:23;;;;;;;11.38;5.43;;;;;;;7.77;79.82;100399.06;5055368;28;20269;-64
2023/11/10 01:37:48;;;;;;;9.65;5.88;;;;;;;7.71;80.93;100396.94;5056479;28;20951;-67
2023/11/10 01:40:14;;;;;;;10.65;5.70;;;;;;;7.79;80.87;100389.22;5056217;28;20098;-67
2023/11/10 01:42:40;;;;;;;9.63;5.60;;;;;;;7.86;80.28;100387.72;5056257;28;20047;-67
2023/11/10 01:45:06;;;;;;;9.82;5.43;;;;;;;7.72;80.98;100381.94;5056306;28;20048;-64
2023/11/10 01:47:32;;;;;;;12.60;6.70;;;;;;;7.69;80.93;100373.34;5055649;28;20078;-64
2023/11/10 01:49:58;;;;;;;7.82;5.20;;;;;;;7.67;81.25;100377.06;5055347;28;20033;-64
2023/11/10 01:52:25;;;;;;;11.43;5.55;;;;;;;7.64;81.19;100367.59;5055061;28;20040;-64
2023/11/10 01:54:51;;;;;;;7.75;5.40;;;;;;;7.43;81.71;100372.03;5055022;28;20238;-67
2023/11/10 01:57:16;;;;;;;7.63;5.65;;;;;;;7.38;82.60;100371.56;5054908;28;20033;-67
2023/11/10 01:59:46;;;;;;;9.18;5.85;;;;;;;7.33;82.81;100369.31;5055316;28;20045;-67
2023/11/10 02:02:12;;;;;;;10.98;6.38;;;;;;;7.41;82.36;100365.22;5054803;28;20028;-67
2023/11/10 02:04:37;;;;;;;9.82;5.35;;;;;;;7.56;81.04;100361.31;5054264;28;20084;-67
2023/11/10 02:07:03;;;;;;;9.95;6.40;;;;;;;7.46;81.76;100358.59;5054876;28;20041;-66
2023/11/10 02:09:29;;;;;;;7.60;5.28;;;;;;;7.40;82.06;100358.28;5055209;28;20396;-67
2023/11/10 02:11:54;;;;;;;8.00;5.65;;;;;;;7.59;81.39;100368.94;5055390;28;20037;-66
2023/11/10 02:14:20;;;;;;;8.15;5.55;;;;;;;7.49;81.72;100370.69;5055570;28;20819;-67
2023/11/10 02:16:45;;;;;;;8.63;5.50;;;;;;;7.68;80.93;100373.47;5055693;28;20376;-67
2023/11/10 02:19:15;;;;;;;8.48;5.65;;;;;;;7.86;79.49;100374.56;5055637;28;20033;-67
2023/11/10 02:21:42;;;;;;;8.52;5.72;;;;;;;7.92;79.38;100375.84;5055568;28;20082;-67
2023/11/10 02:24:09;;;;;;;7.88;5.32;;;;;;;7.97;78.75;100363.94;5055959;28;20037;-67
2023/11/10 02:26:35;;;;;;;7.65;5.55;;;;;;;7.90;78.78;100365.41;5053734;28;20033;-67
2023/11/10 02:29:01;;;;;;;9.43;5.57;;;;;;;7.86;78.60;100364.00;5054621;28;20074;-65
2023/11/10 02:31:26;;;;;;;8.98;5.25;;;;;;;7.75;79.05;100363.25;5054378;28;20036;-67
2023/11/10 02:33:53;;;;;;;8.48;5.55;;;;;;;7.74;78.05;100370.31;5054986;28;20033;-67
2023/11/10 02:36:20;;;;;;;9.55;6.63;;;;;;;7.75;77.74;100368.50;5055088;28;20025;-65
2023/11/10 02:38:46;;;;;;;8.63;5.00;;;;;;;7.77;78.11;100363.94;5054951;28;20095;-65
2023/11/10 02:41:11;;;;;;;7.65;5.15;;;;;;;7.66;78.94;100367.47;5055111;28;20041;-66
2023/11/10 02:43:37;;;;;;;6.25;5.10;;;;;;;7.77;79.10;100370.06;5054634;28;20336;-67
2023/11/10 02:46:03;;;;;;;9.38;5.40;;;;;;;7.79;78.03;100375.19;5055508;28;20045;-65
2023/11/10 02:48:29;;;;;;;13.50;7.88;;;;;;;7.66;78.17;100375.38;5058969;28;20109;-67
2023/11/10 02:50:55;;;;;;;7.72;5.40;;;;;;;7.55;78.81;100381.56;5059686;28;20363;-65
2023/11/10 02:53:21;;;;;;;7.47;5.53;;;;;;;7.49;79.35;100383.84;5059779;28;20160;-64
2023/11/10 02:55:47;;;;;;;7.65;4.85;;;;;;;7.56;79.57;100383.22;5060912;28;20036;-65
2023/11/10 02:58:13;;;;;;;8.10;4.93;;;;;;;7.47;79.23;100383.97;5059559;28;20033;-65
2023/11/10 03:00:39;;;;;;;9.32;5.25;;;;;;;7.41;80.05;100375.75;5059339;28;20029;-65
2023/11/10 03:03:04;;;;;;;7.13;5.38;;;;;;;7.30;80.75;100390.63;5058997;28;20208;-65
2023/11/10 03:05:30;;;;;;;7.07;4.55;;;;;;;7.40;80.08;100382.81;5059073;28;20032;-65
2023/11/10 03:07:56;;;;;;;8.45;4.70;;;;;;;7.50;79.83;100370.56;5058737;28;20068;-64
2023/11/10 03:10:22;;;;;;;7.70;4.78;;;;;;;7.56;78.60;100371.84;5058300;28;20044;-65
2023/11/10 03:12:48;;;;;;;9.10;4.85;;;;;;;7.55;77.03;100368.38;5058268;28;20061;-65
2023/11/10 03:15:13;;;;;;;11.07;5.38;;;;;;;7.62;77.08;100363.44;5059273;28;20032;-65
2023/11/10 03:17:39;;;;;;;8.10;4.95;;;;;;;7.60;77.20;100362.72;5058878;28;20369;-65
2023/11/10 03:20:06;;;;;;;9.40;5.78;;;;;;;7.48;74.96;100355.84;5058770;28;20037;-65
2023/11/10 03:22:32;;;;;;;8.15;4.80;;;;;;;7.46;75.48;100355.97;5058796;28;20028;-65
2023/11/10 03:24:58;;;;;;;9.07;5.45;;;;;;;7.35;75.04;100354.22;5060149;28;20037;-65
2023/11/10 03:27:24;;;;;;;7.13;4.95;;;;;;;7.27;76.11;100351.34;5058717;28;20241;-65
2023/11/10 03:29:50;;;;;;;6.68;5.03;;;;;;;7.05;77.33;100349.63;5058570;28;20049;-65
2023/11/10 03:32:16;;;;;;;6.53;4.72;;;;;;;7.09;77.68;100342.31;5058853;28;20037;-65
2023/11/10 03:34:42;;;;;;;6.32;5.07;;;;;;;7.18;77.56;100346.84;5057826;28;20036;-65
2023/11/10 03:37:11;;;;;;;7.00;4.85;;;;;;;7.20;76.70;100346.72;5058381;28;20099;-65
2023/11/10 03:39:38;;;;;;;7.40;4.63;;;;;;;7.25;77.33;100345.38;5057487;28;20053;-65
2023/11/10 03:42:04;;;;;;;10.45;5.40;;;;;;;7.29;77.07;100344.19;5058156;28;20025;-65
2023/11/10 03:44:29;;;;;;;6.85;4.75;;;;;;;7.28;77.11;100350.41;5058149;28;20192;-65
2023/11/10 03:46:59;;;;;;;6.32;4.55;;;;;;;7.31;77.04;100341.44;5058559;28;20025;-65
2023/11/10 03:49:25;;;;;;;9.25;4.75;;;;;;;7.31;76.26;100338.78;5058311;28;20255;-65
2023/11/10 03:51:51;;;;;;;7.03;5.15;;;;;;;7.27;76.16;100345.25;5057965;28;20048;-65
2023/11/10 03:54:17;;;;;;;7.60;4.82;;;;;;;7.23;75.04;100347.28;5057913;28;20044;-65
2023/11/10 03:56:42;;;;;;;6.82;4.97;;;;;;;7.21;74.97;100345.75;5056415;28;20040;-65
2023/11/10 03:59:08;;;;;;;8.95;5.38;;;;;;;7.20;74.44;100336.19;5057546;28;20033;-65
2023/11/10 04:01:34;;;;;;;6.10;4.65;;;;;;;7.16;75.58;100326.84;5057738;28;20044;-65
2023/11/10 04:04:00;;;;;;;6.45;4.63;;;;;;;7.11;75.80;100326.41;5057938;28;20111;-65
2023/11/10 04:06:26;;;;;;;7.50;5.15;;;;;;;6.90;77.33;100329.81;5057708;28;20293;-65
2023/11/10 04:08:51;;;;;;;6.35;3.97;;;;;;;6.72;77.98;100326.88;5058049;28;20041;-65
2023/11/10 04:11:17;;;;;;;8.57;5.07;;;;;;;6.58;77.91;100327.13;5057888;28;20238;-65
2023/11/10 04:13:44;;;;;;;7.80;5.05;;;;;;;6.77;77.53;100330.94;5058043;28;20242;-65
2023/11/10 04:16:23;;;;;;;7.45;4.60;;;;;;;6.86;77.00;100343.34;5058185;28;20067;-65
2023/11/10 04:18:52;;;;;;;9.23;4.97;;;;;;;6.81;76.92;100337.63;5057890;28;20497;-65
2023/11/10 04:21:21;;;;;;;6.88;4.63;;;;;;;6.77;78.13;100344.09;5057947;28;20047;-65
2023/11/10 04:23:48;;;;;;;10.02;5.60;;;;;;;6.78;78.52;100341.34;5057838;28;20060;-65
2023/11/10 04:26:14;;;;;;;10.55;5.65;;;;;;;6.83;78.00;100346.22;5057227;28;20082;-65
2023/11/10 04:28:41;;;;;;;11.55;6.18;;;;;;;6.85;76.75;100342.50;5057941;28;20068;-65
2023/11/10 04:31:09;;;;;;;8.80;5.80;;;;;;;6.70;75.74;100336.69;5058026;28;20032;-64
2023/11/10 04:33:36;;;;;;;10.63;5.45;;;;;;;6.69;74.69;100337.66;5057246;28;20354;-65
2023/11/10 04:36:04;;;;;;;9.88;6.13;;;;;;;6.60;75.57;100343.66;5057723;28;20049;-65
2023/11/10 04:38:29;;;;;;;12.27;5.55;;;;;;;6.58;75.47;100342.09;5052426;28;20254;-65
2023/11/10 04:40:55;;;;;;;10.20;5.38;;;;;;;6.54;75.80;100346.75;5056564;28;20116;-65
2023/11/10 04:43:20;;;;;;;10.27;5.72;;;;;;;6.27;77.31;100344.50;5056789;28;20067;-65
2023/11/10 04:45:46;;;;;;;9.73;6.35;;;;;;;6.37;78.26;100350.72;5056460;28;20044;-65
2023/11/10 04:48:11;;;;;;;11.02;6.40;;;;;;;6.36;79.32;100343.78;5056678;28;20040;-65
2023/11/10 04:50:38;;;;;;;9.30;6.22;;;;;;;6.31;80.00;100343.31;5056604;28;20039;-65
2023/11/10 04:53:03;;;;;;;6.38;4.75;;;;;;;6.37;77.24;100336.72;5056562;28;20228;-64
2023/11/10 04:55:30;;;;;;;9.07;5.05;;;;;;;6.39;75.88;100335.66;5056539;28;20316;-65
2023/11/10 04:57:55;;;;;;;7.32;4.63;;;;;;;6.31;75.03;100348.56;5056351;28;20037;-64
2023/11/10 05:00:23;;;;;;;11.07;6.10;;;;;;;6.31;74.03;100332.78;5055918;28;20211;-65
2023/11/10 05:02:49;;;;;;;8.32;5.85;;;;;;;6.22;74.63;100332.66;5055910;28;20041;-65
2023/11/10 05:05:15;;;;;;;6.82;5.00;;;;;;;5.63;77.75;100338.03;5055627;28;20029;-65
2023/11/10 05:07:41;;;;;;;8.48;4.88;;;;;;;5.61;78.58;100332.91;5056347;28;20041;-65
2023/11/10 05:10:08;;;;;;;10.13;5.93;;;;;;;5.75;78.74;100342.38;5054811;28;20038;-65
2023/11/10 05:12:37;;;;;;;8.30;5.13;;;;;;;5.61;79.64;100347.84;5054933;28;20044;-65
2023/11/10 05:15:07;;;;;;;11.15;6.40;;;;;;;5.60;81.00;100349.63;5056718;28;20116;-65
2023/11/10 05:17:39;;;;;;;13.45;8.65;;;;;;;5.84;81.10;100352.19;5055838;28;20029;-66
2023/11/10 05:20:09;;;;;;;16.77;11.15;;;;;;;5.94;81.34;100360.22;5056567;28;20434;-65
2023/11/10 05:22:39;;;;;;;14.77;10.07;;;;;;;6.05;81.32;100352.34;5056739;28;20094;-65
2023/11/10 05:25:06;;;;;;;17.85;9.95;;;;;;;6.23;80.68;100342.22;5056879;28;20287;-65
2023/11/10 05:27:32;;;;;;;17.80;9.60;;;;;;;6.38;79.94;100357.66;5057856;28;20041;-65
2023/11/10 05:29:58;;;;;;;24.83;8.85;;;;;;;6.46;79.37;100340.44;5057330;28;20086;-65
2023/11/10 05:32:23;;;;;;;12.07;7.63;;;;;;;6.50;78.15;100345.31;5057559;28;20297;-65
2023/11/10 05:34:50;;;;;;;13.88;7.43;;;;;;;6.50;79.07;100333.97;5057689;28;20262;-66
2023/11/10 05:37:18;;;;;;;12.05;7.55;;;;;;;6.46;78.20;100349.16;5058408;28;20041;-65
2023/11/10 05:39:46;;;;;;;17.00;7.13;;;;;;;6.50;78.87;100331.34;5058533;28;20025;-65
2023/11/10 05:42:15;;;;;;;12.13;7.68;;;;;;;6.52;79.73;100332.06;5059024;28;20033;-65
2023/11/10 05:44:41;;;;;;;11.43;6.88;;;;;;;6.49;79.39;100337.56;5058298;28;20208;-65
2023/11/10 05:47:07;;;;;;;12.60;6.80;;;;;;;6.53;79.90;100324.03;5058951;28;20059;-66
2023/11/10 05:49:36;;;;;;;14.43;6.93;;;;;;;6.69;80.18;100344.69;5057532;28;20044;-65
2023/11/10 05:52:03;;;;;;;21.95;10.60;;;;;;;6.77;79.53;100338.81;5058184;28;20032;-65
2023/11/10 05:54:29;;;;;;;24.48;10.90;;;;;;;6.82;79.85;100344.56;5057925;28;20092;-65
2023/11/10 05:56:55;;;;;;;16.50;7.00;;;;;;;6.79;79.96;100339.53;5058056;28;20448;-65
2023/11/10 05:59:21;;;;;;;23.58;8.93;;;;;;;6.92;79.25;100342.84;5058148;28;20096;-65
2023/11/10 06:01:47;;;;;;;17.25;8.40;;;;;;;7.03;79.76;100350.72;5058233;28;20062;-65
2023/11/10 06:04:16;;;;;;;14.55;6.95;;;;;;;7.18;80.34;100354.72;5058565;28;20151;-66
2023/11/10 06:06:45;;;;;;;9.60;6.55;;;;;;;7.28;80.96;100358.31;5058198;28;20048;-66
2023/11/10 06:09:11;;;;;;;15.13;7.50;;;;;;;7.41;80.93;100362.56;5058529;28;20040;-65
2023/11/10 06:11:37;;;;;;;15.85;7.00;;;;;;;7.51;80.82;100368.75;5057985;28;20056;-65
2023/11/10 06:14:03;;;;;;;10.77;6.28;;;;;;;7.59;80.55;100363.69;5058154;28;20056;-66
2023/11/10 06:16:29;;;;;;;9.50;5.88;;;;;;;7.65;79.53;100366.66;5057946;28;20036;-65
2023/11/10 06:18:55;;;;;;;10.25;5.82;;;;;;;7.76;79.34;100357.00;5058018;28;20099;-66
2023/11/10 06:21:23;;;;;;;9.18;4.68;;;;;;;7.91;78.57;100366.25;5057921;28;20090;-68
2023/11/10 06:23:52;;;;;;;12.07;6.40;;;;;;;7.94;77.44;100360.72;5058214;28;20044;-66
2023/11/10 06:26:18;;;;;;;12.55;6.60;;;;;;;7.95;77.85;100359.75;5058178;28;20091;-66
2023/11/10 06:28:44;;;;;;;7.65;4.63;;;;;;;8.00;78.09;100357.56;5057242;28;20323;-65
2023/11/10 06:31:11;;;;;;;8.35;5.55;;;;;;;7.98;78.05;100354.22;5056514;28;20297;-68
2023/11/10 06:33:38;;;;;;;21.10;10.02;;;;;;;7.94;77.57;100358.09;5055252;28;20087;-68
2023/11/10 06:36:04;;;;;;;16.10;7.97;;;;;;;7.97;78.08;100358.66;5056196;28;20063;-68
2023/11/10 06:38:29;;;;;;;13.35;6.40;;;;;;;7.77;78.58;100367.41;5056795;28;20045;-67
2023/11/10 06:40:55;;;;;;;11.63;7.25;;;;;;;7.51;80.29;100356.41;5056016;28;20380;-67
2023/11/10 06:43:21;;;;;;;12.85;7.03;;;;;;;7.57;81.03;100358.53;5058020;28;20330;-68
2023/11/10 06:45:47;;;;;;;7.85;5.80;;;;;;;7.59;81.04;100355.78;5055311;28;20325;-68
2023/11/10 06:48:14;;;;;;;7.70;5.20;;;;;;;7.68;80.81;100349.72;5056671;28;20314;-67
2023/11/10 06:50:41;;;;;;;10.23;9.07;;;;;;;7.84;80.88;100344.84;5055436;28;20096;-68
2023/11/10 06:53:09;;;;;;;10.90;6.88;;;;;;;7.95;80.42;100336.03;5057804;28;20288;-68
2023/11/10 06:55:36;;;;;;;27.45;13.30;;;;;;;8.06;81.07;100343.84;5055862;28;20036;-67
2023/11/10 06:58:02;;;;;;;41.55;20.67;;;;;;;8.29;81.53;100339.22;5057103;28;20342;-67
2023/11/10 07:00:29;;;;;;;21.30;10.90;;;;;;;8.61;81.41;100355.78;5055363;28;20100;-67
2023/11/10 07:02:56;;;;;;;9.68;6.22;;;;;;;8.75;80.65;100338.75;5057854;28;20079;-67
2023/11/10 07:05:25;;;;;;;9.57;5.28;;;;;;;9.00;79.71;100340.03;5054777;28;20392;-67
2023/11/10 07:07:55;;;;;;;7.30;5.15;;;;;;;9.21;78.07;100316.13;5037726;28;20068;-67
2023/11/10 07:10:21;;;;;;;10.10;5.82;;;;;;;9.48;76.33;100323.38;5041594;28;20044;-67
2023/11/10 07:12:47;;;;;;;9.25;5.82;;;;;;;9.65;76.05;100319.16;5057518;28;20045;-68
2023/11/10 07:15:12;;;;;;;7.18;4.47;;;;;;;9.76;75.97;100311.91;5054669;28;20349;-67
2023/11/10 07:17:38;;;;;;;5.00;4.05;;;;;;;9.80;73.66;100307.16;5057711;28;20037;-67
2023/11/10 07:20:11;;;;;;;7.15;4.13;;;;;;;9.84;74.17;100292.66;5055753;28;20036;-67
2023/11/10 07:22:38;;;;;;;5.32;4.10;;;;;;;9.85;73.72;100289.88;5056988;28;20088;-66
2023/11/10 07:25:04;;;;;;;6.68;3.83;;;;;;;9.86;73.74;100285.44;5056555;28;20029;-66
2023/11/10 07:27:30;;;;;;;8.32;4.53;;;;;;;9.95;73.77;100286.38;5055728;28;20108;-67
2023/11/10 07:29:56;;;;;;;5.90;4.80;;;;;;;10.09;74.51;100285.91;5054350;28;20247;-67
2023/11/10 07:32:21;;;;;;;9.68;5.78;;;;;;;10.13;73.41;100277.53;5056172;28;20036;-66
2023/11/10 07:34:48;;;;;;;7.45;5.65;;;;;;;10.14;73.15;100273.91;5057827;28;20037;-67
2023/11/10 07:37:13;;;;;;;8.93;6.28;;;;;;;10.26;72.45;100277.22;5060680;28;20056;-67
2023/11/10 07:39:40;;;;;;;10.38;6.45;;;;;;;10.36;71.85;100274.53;5058418;28;20331;-67
2023/11/10 07:42:07;;;;;;;9.68;5.85;;;;;;;10.48;72.27;100276.00;5061383;28;20045;-67
2023/11/10 07:44:33;;;;;;;10.68;5.90;;;;;;;10.41;73.71;100270.47;5058110;28;20053;-66
2023/11/10 07:46:58;;;;;;;12.40;6.28;;;;;;;10.42;74.99;100264.19;5060514;28;20033;-66
2023/11/10 07:49:25;;;;;;;10.95;5.90;;;;;;;10.49;75.25;100259.97;5058748;28;20033;-67
2023/11/10 07:51:52;;;;;;;11.23;6.80;;;;;;;10.45;75.14;100253.31;5061404;28;20082;-66
2023/11/10 07:54:18;;;;;;;11.82;7.63;;;;;;;9.93;76.37;100246.84;5057893;28;20068;-66
2023/11/10 07:56:46;;;;;;;14.93;8.10;;;;;;;10.14;75.97;100246.59;5060036;28;20147;-66
2023/11/10 07:59:13;;;;;;;12.90;8.15;;;;;;;10.27;74.76;100241.81;5058940;28;20354;-66
2023/11/10 08:01:41;;;;;;;13.93;8.25;;;;;;;10.41;75.63;100236.06;5058763;28;20293;-67
2023/11/10 08:04:09;;;;;;;13.48;7.95;;;;;;;10.58;75.93;100237.06;5060218;28;20246;-67
2023/11/10 08:06:36;;;;;;;15.40;8.50;;;;;;;10.69;75.53;100230.72;5057766;28;20040;-71
2023/11/10 08:09:01;;;;;;;13.73;8.43;;;;;;;10.81;74.64;100238.28;5056099;28;20041;-66
2023/11/10 08:11:27;;;;;;;15.75;7.97;;;;;;;10.88;74.85;100233.22;5059823;28;20044;-67
2023/11/10 08:13:54;;;;;;;10.90;6.82;;;;;;;10.87;74.86;100231.56;5058753;28;20338;-67
2023/11/10 08:16:19;;;;;;;14.15;9.00;;;;;;;10.84;74.81;100243.28;5059749;28;20043;-66
2023/11/10 08:18:45;;;;;;;13.98;8.07;;;;;;;10.98;74.29;100231.31;5057894;28;20056;-67
2023/11/10 08:21:17;;;;;;;11.52;7.53;;;;;;;11.01;74.51;100227.53;5059543;28;20044;-67
2023/11/10 08:23:43;;;;;;;13.60;8.18;;;;;;;11.04;74.89;100232.53;5058028;28;20462;-66
2023/11/10 08:26:09;;;;;;;12.02;7.30;;;;;;;10.99;74.90;100230.31;5058385;28;20029;-67
2023/11/10 08:28:35;;;;;;;10.68;7.50;;;;;;;11.17;74.10;100239.09;5056836;28;20033;-67
2023/11/10 08:31:01;;;;;;;13.98;7.65;;;;;;;11.13;73.63;100243.03;5057771;28;20037;-67
2023/11/10 08:33:26;;;;;;;11.77;8.00;;;;;;;11.23;73.28;100237.66;5059820;28;20037;-67
2023/11/10 08:35:52;;;;;;;10.80;7.50;;;;;;;11.29;71.75;100234.38;5058011;28;20310;-67
2023/11/10 08:38:18;;;;;;;10.52;7.72;;;;;;;11.13;72.43;100237.72;5058149;28;20389;-67
2023/11/10 08:40:44;;;;;;;11.52;7.05;;;;;;;11.36;72.90;100243.38;5057468;28;20064;-67
2023/11/10 08:43:10;;;;;;;13.45;7.07;;;;;;;11.40;72.91;100220.88;5058665;28;20056;-67
2023/11/10 08:45:36;;;;;;;11.90;7.20;;;;;;;11.58;71.07;100222.66;5056860;28;20060;-66
2023/11/10 08:48:02;;;;;;;12.38;6.82;;;;;;;11.68;71.12;100224.22;5057674;28;20040;-67
2023/11/10 08:50:28;;;;;;;11.48;7.50;;;;;;;11.74;72.45;100234.19;5058012;28;20033;-67
2023/11/10 08:52:53;;;;;;;10.80;6.85;;;;;;;11.61;74.22;100227.66;5057335;28;20365;-66
2023/11/10 08:55:21;;;;;;;10.00;7.60;;;;;;;11.73;73.11;100237.00;5059276;28;20033;-66
2023/11/10 08:57:47;;;;;;;13.20;9.65;;;;;;;11.43;72.28;100227.69;5054994;28;20044;-66
2023/11/10 09:00:16;;;;;;;13.75;7.97;;;;;;;11.56;72.05;100230.78;5058932;28;20056;-67
2023/11/10 09:02:43;;;;;;;11.38;7.40;;;;;;;11.62;72.06;100229.31;5054399;28;20033;-67
2023/11/10 09:05:12;;;;;;;11.65;7.55;;;;;;;11.57;72.71;100234.25;5059623;28;20322;-67
2023/11/10 09:07:40;;;;;;;12.27;8.15;;;;;;;11.49;73.22;100208.53;5057449;28;20048;-67
2023/11/10 09:10:06;;;;;;;15.48;9.45;;;;;;;11.55;73.55;100222.97;5057619;28;20120;-67
2023/11/10 09:12:35;;;;;;;11.05;8.25;;;;;;;11.55;73.28;100229.09;5057802;28;20037;-66
2023/11/10 09:15:00;;;;;;;13.18;8.48;;;;;;;11.67;72.49;100221.72;5059544;28;20040;-67
2023/11/10 09:17:26;;;;;;;9.63;7.88;;;;;;;11.46;72.30;100222.09;5058454;28;20037;-67
2023/11/10 09:19:52;;;;;;;13.02;8.85;;;;;;;11.48;72.78;100201.56;5057503;28;20033;-67
2023/11/10 09:22:18;;;;;;;10.18;8.27;;;;;;;11.61;72.97;100209.91;5057895;28;20056;-67
2023/11/10 09:24:45;;;;;;;13.65;9.73;;;;;;;11.68;73.93;100203.00;5056999;28;20342;-67
2023/11/10 09:27:10;;;;;;;10.38;7.68;;;;;;;11.51;73.05;100196.75;5057531;28;20037;-67
2023/11/10 09:29:35;;;;;;;14.00;8.65;;;;;;;11.71;73.33;100193.88;5057993;28;20048;-67
2023/11/10 09:32:02;;;;;;;17.88;8.63;;;;;;;11.62;72.46;100192.19;5056705;28;20039;-67
2023/11/10 09:34:28;;;;;;;11.18;7.63;;;;;;;11.71;72.56;100184.09;5055853;28;20064;-66
2023/11/10 09:36:54;;;;;;;11.52;7.40;;;;;;;11.65;72.15;100179.44;5056762;28;20040;-66
2023/11/10 09:39:20;;;;;;;10.52;6.68;;;;;;;11.63;71.99;100173.47;5057179;28;20057;-67
2023/11/10 09:41:53;;;;;;;11.18;7.13;;;;;;;11.55;72.46;100176.06;5056335;28;20357;-67
2023/11/10 09:44:20;;;;;;;11.57;7.13;;;;;;;11.73;70.30;100170.69;5044807;28;20044;-66
2023/11/10 09:46:49;;;;;;;10.13;6.88;;;;;;;11.64;72.57;100159.22;5056050;28;20037;-67
2023/11/10 09:49:17;;;;;;;14.57;11.95;;;;;;;11.69;72.32;100162.22;5057723;28;20048;-67
2023/11/10 09:51:45;;;;;;;13.00;8.35;;;;;;;11.67;71.87;100127.06;5056138;28;20025;-67
2023/11/10 09:54:13;;;;;;;18.52;11.77;;;;;;;11.80;74.33;100148.69;5055659;28;20124;-67
2023/11/10 09:56:40;;;;;;;10.63;7.32;;;;;;;11.80;72.81;100138.09;5054897;28;20121;-67
2023/11/10 09:59:08;;;;;;;12.25;7.78;;;;;;;11.88;73.06;100128.47;5056710;28;20112;-67
2023/11/10 10:01:34;;;;;;;11.57;6.93;;;;;;;11.86;72.37;100127.81;5056388;28;20273;-67
2023/11/10 10:03:59;;;;;;;12.05;7.30;;;;;;;11.79;72.60;100130.28;5056060;28;20075;-66
2023/11/10 10:06:26;;;;;;;11.65;6.47;;;;;;;11.75;71.23;100115.66;5057253;28;20311;-67
2023/11/10 10:08:55;;;;;;;9.52;6.72;;;;;;;11.90;70.03;100111.41;5056508;28;20083;-67
2023/11/10 10:11:23;;;;;;;8.75;5.80;;;;;;;11.85;69.49;100107.59;5057089;28;20103;-67
2023/11/10 10:13:49;;;;;;;10.65;6.03;;;;;;;11.91;69.92;100096.31;5055687;28;20055;-67
2023/11/10 10:16:15;;;;;;;8.23;5.25;;;;;;;12.00;69.19;100090.03;5055781;28;20029;-66
2023/11/10 10:18:42;;;;;;;5.57;4.82;;;;;;;12.00;67.52;100077.59;5056771;28;20329;-66
2023/11/10 10:21:08;;;;;;;9.02;4.97;;;;;;;12.10;67.09;100067.66;5056428;28;20052;-67
2023/11/10 10:23:35;;;;;;;9.48;5.88;;;;;;;12.00;67.88;100055.53;5055729;28;20059;-67
2023/11/10 10:26:04;;;;;;;7.15;4.65;;;;;;;12.02;68.00;100061.50;5057211;28;20061;-67
2023/11/10 10:28:30;;;;;;;8.65;5.25;;;;;;;12.22;68.30;100057.56;5052693;28;20053;-67
2023/11/10 10:30:56;;;;;;;7.25;4.85;;;;;;;12.15;68.86;100054.72;5056270;28;20036;-67
2023/11/10 10:33:22;;;;;;;8.35;6.15;;;;;;;12.20;69.34;100045.44;5054098;28;20064;-67
2023/11/10 10:35:48;;;;;;;9.40;5.07;;;;;;;12.33;68.81;100049.25;5054994;28;20218;-67
2023/11/10 10:38:17;;;;;;;7.93;5.05;;;;;;;12.33;70.55;100040.47;5055405;28;20041;-66
2023/11/10 10:40:43;;;;;;;8.55;5.55;;;;;;;12.46;70.35;100043.44;5053755;28;20353;-67
2023/11/10 10:43:09;;;;;;;7.90;4.80;;;;;;;12.42;70.06;100034.97;5055514;28;20029;-67
2023/11/10 10:45:36;;;;;;;7.22;4.97;;;;;;;12.53;70.13;100035.66;5053889;28;20075;-67
2023/11/10 10:48:04;;;;;;;8.05;5.57;;;;;;;12.54;69.85;100026.72;5055699;28;20445;-67
2023/11/10 10:50:32;;;;;;;7.10;4.97;;;;;;;12.56;69.28;100022.88;5053432;28;20114;-67
2023/11/10 10:52:59;;;;;;;7.38;5.45;;;;;;;12.58;70.42;100023.53;5055008;28;20029;-67
2023/11/10 10:55:26;;;;;;;8.65;5.75;;;;;;;12.40;71.26;100023.69;5056347;28;20025;-67
2023/11/10 10:57:54;;;;;;;11.07;6.00;;;;;;;12.45;70.98;100015.22;5055890;28;20053;-67
2023/11/10 11:00:20;;;;;;;7.70;5.10;;;;;;;12.51;71.14;100011.09;5057229;28;20036;-67
2023/11/10 11:02:58;;;;;;;9.48;5.32;;;;;;;12.52;70.75;99995.00;5054583;28;20072;-67
2023/11/10 11:05:23;;;;;;;8.55;5.22;;;;;;;12.65;71.13;99986.50;5037590;28;20100;-66
2023/11/10 11:08:08;;;;;;;8.75;5.68;;;;;;;12.61;71.43;99971.91;5044512;28;20033;-67
2023/11/10 11:10:45;;;;;;;8.75;6.68;;;;;;;12.67;69.89;99950.81;5049057;28;20342;-67
2023/11/10 11:13:34;;;;;;;8.32;5.60;;;;;;;12.71;71.01;99956.59;5060491;28;20366;-67
2023/11/10 11:15:59;;;;;;;8.75;5.50;;;;;;;12.80;70.53;99963.56;5058878;28;20032;-67
2023/11/10 11:18:52;;;;;;;7.40;5.28;;;;;;;12.75;70.82;99966.72;5061049;28;20075;-67
2023/11/10 11:21:19;;;;;;;7.35;5.47;;;;;;;12.79;70.80;99959.25;5059004;28;20032;-67
2023/11/10 11:23:50;;;;;;;7.70;5.65;;;;;;;12.83;68.88;99949.91;5060838;28;20037;-67